Hovedside
METAR-TAF:

METAR-TAF

Lufthavner :

Kristiansand, Norge

Kristiansand lufthavn. Kjevik

breddegrad: 58-12N, lengdegrad: 008-05E, høyde over havet: 1 m

Gjeldene værobservasjon

Denne rapporten ble laget for 35 minutter siden, klokken 07:50 UTC
Vind 6 kt fra Øst
Temperatur 1°C
Luftfuktighet 86%
Trykk 1008 hPa
Sikt: 9000 m
Brutte skyer i en høyde av 1400 ft
lett regn

METAR: ENCN 220750Z 09006KT 9000 -RA BKN014 01/M01 Q1008

Tid: 09:25 (08:25 UTC)

Varsel

Denne rapporten ble laget for 3 timer og 25 minutter siden, klokken 05:00 UTC
Varsel gyldig fra 22. klokken 06 UTC til 22. klokken 15 UTC
Vind 8 kt fra Øst
Sikt: 8000 m
Få skyer i en høyde av 800 ft
Spredte skyer i en høyde av 1200 ft
Brutte skyer i en høyde av 2000 ft
lett snø
Midlertidig
fra 22. klokken 06 UTC til 22. klokken 15 UTC
Sikt: 2500 m
Brutte skyer i en høyde av 600 ft
snø, regn

TAF: ENCN 220500Z 2206/2215 10008KT 8000 -SN FEW008 SCT012 BKN020 TEMPO 2206/2215 2500 SNRA BKN006

Værobservasjoner og værvarsel for over 4000 flyplasser (METAR- og TAF-rapporter).

Tilgjengelige stasjoner er representert av de røde og gule prikkene på kartet.

Hold musepekeren over prikken for å se navnet på stasjonen.

Klikk så for å se værobservasjoner og -varsler.

For å forandre kartet kan du klikke på den grønne knappen med svart kryss for å zoome inn, på den grønne knappen med strek for å zoome ut, eller på de grønne pilene for å se tilstøtende kart.


METAR-TAF: